Time;durP1;ratioP1;P1;durP2;ratioP2;P2;SDS_P1;SDS_P2;PMS_P1;PMS_P2;Temp;Humidity;BMP_temperature;BMP_pressure;BME280_temperature;BME280_humidity;BME280_pressure;Samples;Min_cycle;Max_cycle;Signal;HPM_P1;HPM_P2
2021/05/06 00:00:07;;;;;;;0.40;0.40;;;6.80;99.90;;;;;;4402615;32;20057;-61
2021/05/06 00:05:23;;;;;;;0.47;0.47;;;6.80;99.90;;;;;;4414133;32;20124;-62
2021/05/06 00:08:03;;;;;;;0.35;0.35;;;6.80;99.90;;;;;;4412559;32;20077;-62
2021/05/06 00:10:58;;;;;;;0.40;0.40;;;6.80;99.90;;;;;;4414499;32;20101;-61
2021/05/06 00:30:09;;;;;;;8.93;1.95;;;6.60;99.90;;;;;;4412503;32;20110;-61
2021/05/06 00:32:35;;;;;;;2.80;0.80;;;6.60;99.90;;;;;;4412194;32;20073;-63
2021/05/06 00:35:01;;;;;;;0.40;0.40;;;6.60;99.90;;;;;;4414236;32;20085;-62
2021/05/06 00:37:27;;;;;;;5.97;0.77;;;6.60;99.90;;;;;;4413367;32;20073;-62
2021/05/06 00:40:00;;;;;;;1.48;0.60;;;6.60;99.90;;;;;;4415572;32;20062;-63
2021/05/06 00:42:37;;;;;;;0.70;0.70;;;6.60;99.90;;;;;;4400485;32;20065;-62
2021/05/06 00:45:35;;;;;;;0.40;0.40;;;6.50;99.90;;;;;;4414086;32;20069;-61
2021/05/06 00:54:30;;;;;;;1.02;0.98;;;6.50;99.90;;;;;;4412240;32;20129;-61
2021/05/06 00:56:28;;;;;;;0.60;0.55;;;6.40;99.90;;;;;;4412748;32;20125;-60
2021/05/06 00:59:11;;;;;;;0.62;0.62;;;6.30;99.90;;;;;;4415845;32;20082;-61
2021/05/06 01:01:48;;;;;;;0.40;0.40;;;6.30;99.90;;;;;;4427987;32;20078;-61
2021/05/06 01:05:22;;;;;;;1.55;0.80;;;6.30;99.90;;;;;;4428107;32;20086;-60
2021/05/06 01:09:35;;;;;;;0.40;0.40;;;6.30;99.90;;;;;;4427529;32;20116;-60
2021/05/06 01:12:02;;;;;;;0.75;0.75;;;6.30;99.90;;;;;;4429085;32;20069;-63
2021/05/06 01:14:28;;;;;;;1.45;0.65;;;6.20;99.90;;;;;;4428921;32;20120;-63
2021/05/06 01:16:54;;;;;;;0.30;0.30;;;6.20;99.90;;;;;;4429086;32;20079;-61
2021/05/06 01:19:20;;;;;;;0.28;0.28;;;6.30;99.90;;;;;;4428095;32;20061;-61
2021/05/06 01:21:46;;;;;;;0.30;0.30;;;6.30;99.90;;;;;;4415542;32;20064;-61
2021/05/06 01:24:11;;;;;;;0.28;0.28;;;6.30;99.90;;;;;;4427958;32;20197;-61
2021/05/06 01:29:10;;;;;;;0.30;0.30;;;6.30;99.90;;;;;;4415027;32;20116;-61
2021/05/06 01:31:40;;;;;;;0.30;0.30;;;6.30;99.90;;;;;;4403771;32;20124;-63
2021/05/06 01:34:17;;;;;;;0.57;0.57;;;6.30;99.90;;;;;;4415135;32;20065;-61
2021/05/06 01:36:47;;;;;;;0.30;0.30;;;6.40;99.90;;;;;;4415532;32;20089;-61
2021/05/06 01:39:35;;;;;;;0.45;0.45;;;6.30;99.90;;;;;;4414535;32;20061;-61
2021/05/06 01:42:10;;;;;;;0.30;0.30;;;6.20;99.90;;;;;;4414503;32;20094;-62
2021/05/06 01:45:27;;;;;;;0.50;0.50;;;6.20;99.90;;;;;;4415784;32;20510;-63
2021/05/06 01:47:30;;;;;;;0.30;0.30;;;6.10;99.90;;;;;;4414665;32;20070;-62
2021/05/06 01:50:23;;;;;;;0.32;0.32;;;6.10;99.90;;;;;;4415314;32;20066;-62
2021/05/06 01:57:34;;;;;;;0.40;0.40;;;6.10;99.90;;;;;;4414461;32;20131;-61
2021/05/06 01:58:32;;;;;;;0.45;0.45;;;6.10;99.90;;;;;;4413896;32;20165;-63
2021/05/06 02:01:01;;;;;;;0.30;0.30;;;6.10;99.90;;;;;;4413920;32;20074;-61
2021/05/06 02:03:27;;;;;;;0.68;0.68;;;6.00;99.90;;;;;;4405503;32;20061;-61
2021/05/06 02:05:54;;;;;;;0.60;0.60;;;6.00;99.90;;;;;;4416326;32;20066;-60
2021/05/06 02:08:20;;;;;;;0.60;0.60;;;6.00;99.90;;;;;;4401555;32;20399;-59
2021/05/06 02:10:46;;;;;;;3.15;1.08;;;6.00;99.90;;;;;;4418230;32;20073;-61
2021/05/06 02:13:13;;;;;;;1.67;1.08;;;6.00;99.90;;;;;;4430898;32;20117;-62
2021/05/06 02:15:42;;;;;;;0.35;0.35;;;6.00;99.90;;;;;;4416701;32;20083;-62
2021/05/06 02:18:08;;;;;;;0.30;0.30;;;6.00;99.90;;;;;;4430943;32;20073;-62
2021/05/06 02:20:34;;;;;;;0.37;0.37;;;6.10;99.90;;;;;;4430359;32;20172;-61
2021/05/06 02:23:03;;;;;;;2.28;0.70;;;6.10;99.90;;;;;;4430925;32;20499;-60
2021/05/06 02:25:28;;;;;;;0.30;0.30;;;6.00;99.90;;;;;;4430030;32;20413;-61
2021/05/06 02:27:54;;;;;;;0.30;0.30;;;6.00;99.90;;;;;;4409237;32;20061;-62
2021/05/06 02:30:20;;;;;;;0.65;0.47;;;5.90;99.90;;;;;;4415535;32;20065;-60
2021/05/06 02:32:45;;;;;;;0.20;0.20;;;5.90;99.90;;;;;;4415932;32;20058;-62
2021/05/06 02:35:11;;;;;;;0.50;0.50;;;6.00;99.90;;;;;;4414610;32;20510;-60
2021/05/06 02:37:37;;;;;;;1.35;0.35;;;6.00;99.90;;;;;;4415543;32;20054;-63
2021/05/06 02:40:05;;;;;;;1.10;1.08;;;5.90;99.90;;;;;;4414312;32;20116;-61
2021/05/06 02:42:31;;;;;;;1.10;0.82;;;5.90;99.90;;;;;;4415013;32;20058;-62
2021/05/06 02:44:56;;;;;;;0.40;0.40;;;5.90;99.90;;;;;;4401334;32;20531;-61
2021/05/06 02:47:22;;;;;;;0.98;0.90;;;5.80;99.90;;;;;;4415841;32;20404;-61
2021/05/06 02:49:48;;;;;;;0.88;0.80;;;5.80;99.90;;;;;;4414439;32;20069;-62
2021/05/06 02:52:23;;;;;;;0.98;0.70;;;5.80;99.90;;;;;;4414566;32;20062;-62
2021/05/06 02:54:56;;;;;;;0.50;0.50;;;5.80;99.90;;;;;;4414245;32;20069;-62
2021/05/06 02:57:36;;;;;;;0.30;0.30;;;5.80;99.90;;;;;;4414768;32;20062;-62
2021/05/06 03:02:50;;;;;;;0.60;0.60;;;5.80;99.90;;;;;;4413294;32;20459;-62
2021/05/06 03:05:18;;;;;;;0.20;0.20;;;5.80;99.90;;;;;;4415799;32;20069;-62
2021/05/06 03:07:49;;;;;;;2.72;0.77;;;5.70;99.90;;;;;;4415403;32;20404;-61
2021/05/06 03:13:15;;;;;;;0.62;0.62;;;5.70;99.90;;;;;;4428355;32;20074;-62
2021/05/06 03:23:15;;;;;;;0.30;0.30;;;5.60;99.90;;;;;;4417900;32;20081;-62
2021/05/06 03:24:02;;;;;;;0.30;0.30;;;5.60;99.90;;;;;;4428950;32;20086;-62
2021/05/06 03:26:29;;;;;;;0.32;0.32;;;5.60;99.90;;;;;;4416933;32;20073;-62
2021/05/06 03:28:59;;;;;;;0.30;0.30;;;5.40;99.90;;;;;;4415473;32;20429;-61
2021/05/06 03:31:47;;;;;;;0.82;0.60;;;5.30;99.90;;;;;;4413753;32;20062;-62
2021/05/06 03:41:35;;;;;;;4.30;1.15;;;5.40;99.90;;;;;;4412963;32;20077;-62
2021/05/06 03:41:45;;;;;;;0.30;0.30;;;5.20;99.90;;;;;;4413173;32;20069;-61
2021/05/06 03:42:34;;;;;;;0.35;0.35;;;5.20;99.90;;;;;;4412406;32;20073;-60
2021/05/06 03:46:24;;;;;;;0.50;0.50;;;5.30;99.90;;;;;;4414075;32;20065;-61
2021/05/06 03:48:15;;;;;;;0.55;0.55;;;5.30;99.90;;;;;;4413064;32;20141;-61
2021/05/06 04:11:55;;;;;;;0.32;0.32;;;5.30;99.90;;;;;;4412066;32;20066;-61
2021/05/06 04:13:02;;;;;;;1.83;1.17;;;5.30;99.90;;;;;;4412396;32;20069;-60
2021/05/06 04:15:36;;;;;;;0.30;0.30;;;5.20;99.90;;;;;;4412631;32;20090;-61
2021/05/06 04:18:16;;;;;;;0.40;0.40;;;5.20;99.90;;;;;;4414459;32;20074;-62
2021/05/06 04:26:03;;;;;;;0.30;0.30;;;5.20;99.90;;;;;;4424765;32;20048;-62
2021/05/06 04:31:11;;;;;;;0.40;0.40;;;5.20;99.90;;;;;;4426816;32;20128;-62
2021/05/06 04:35:41;;;;;;;0.60;0.60;;;5.30;99.90;;;;;;4428495;32;20077;-62
2021/05/06 04:41:31;;;;;;;0.55;0.55;;;5.30;99.90;;;;;;4415681;32;20078;-62
2021/05/06 04:54:31;;;;;;;0.77;0.77;;;5.50;99.90;;;;;;4410823;32;20062;-60
2021/05/06 04:54:48;;;;;;;0.62;0.47;;;5.60;99.90;;;;;;4411003;32;20130;-61
2021/05/06 04:57:34;;;;;;;0.37;0.37;;;5.60;99.90;;;;;;4413048;32;20058;-62
2021/05/06 05:03:54;;;;;;;0.30;0.30;;;5.60;99.90;;;;;;4414396;32;20082;-63
2021/05/06 05:05:30;;;;;;;0.60;0.60;;;5.70;99.90;;;;;;4414866;32;20089;-62
2021/05/06 05:08:03;;;;;;;0.40;0.40;;;5.80;99.90;;;;;;4420258;32;20069;-61
2021/05/06 05:10:41;;;;;;;0.43;0.43;;;5.80;99.90;;;;;;4419096;32;20066;-62
2021/05/06 05:13:21;;;;;;;0.80;0.75;;;6.00;99.90;;;;;;4419334;32;20089;-61
2021/05/06 05:23:48;;;;;;;0.30;0.30;;;6.20;99.90;;;;;;4422600;32;20092;-62
2021/05/06 05:26:15;;;;;;;0.65;0.65;;;6.20;99.90;;;;;;4418724;32;20434;-61
2021/05/06 05:28:41;;;;;;;0.30;0.30;;;6.30;99.90;;;;;;4414376;32;20080;-61
2021/05/06 05:31:07;;;;;;;0.40;0.40;;;6.40;99.90;;;;;;4404232;32;20099;-61
2021/05/06 05:33:39;;;;;;;2.40;0.73;;;6.40;99.90;;;;;;4397928;32;20679;-61
2021/05/06 05:38:39;;;;;;;0.98;0.77;;;6.50;99.90;;;;;;4419484;32;20073;-61
2021/05/06 05:41:50;;;;;;;5.32;1.55;;;6.60;99.90;;;;;;4428045;32;20077;-62
2021/05/06 05:44:04;;;;;;;0.30;0.30;;;6.70;99.90;;;;;;4410549;32;20101;-64
2021/05/06 05:47:07;;;;;;;40.12;1.05;;;6.90;99.90;;;;;;4421695;32;20954;-61
2021/05/06 05:54:35;;;;;;;4.75;0.70;;;6.90;99.90;;;;;;4417528;32;20125;-61
2021/05/06 05:54:47;;;;;;;1.37;1.27;;;7.00;99.90;;;;;;4420297;32;20534;-62
2021/05/06 05:57:13;;;;;;;0.30;0.30;;;7.00;99.90;;;;;;4414663;32;20468;-60
2021/05/06 05:59:39;;;;;;;0.37;0.37;;;7.10;99.90;;;;;;4419704;32;20145;-61
2021/05/06 06:02:05;;;;;;;0.55;0.55;;;7.20;99.90;;;;;;4421753;32;20061;-60
2021/05/06 06:04:30;;;;;;;0.80;0.80;;;7.30;99.90;;;;;;4425954;32;20073;-63
2021/05/06 06:06:56;;;;;;;0.30;0.30;;;7.40;99.90;;;;;;4426696;32;20093;-61
2021/05/06 06:09:22;;;;;;;1.52;0.88;;;7.40;99.90;;;;;;4419752;32;20125;-61
2021/05/06 06:11:48;;;;;;;0.50;0.50;;;7.40;99.90;;;;;;4403037;32;20073;-60
2021/05/06 06:14:17;;;;;;;0.40;0.40;;;7.60;99.90;;;;;;4407216;32;20086;-61
2021/05/06 06:16:43;;;;;;;0.22;0.22;;;7.60;99.90;;;;;;4412788;32;20189;-61
2021/05/06 06:19:08;;;;;;;0.40;0.40;;;7.70;99.90;;;;;;4414635;32;20781;-61
2021/05/06 06:24:02;;;;;;;1.27;1.15;;;7.60;99.90;;;;;;4416666;32;20440;-60
2021/05/06 06:26:27;;;;;;;1.65;1.08;;;7.60;99.90;;;;;;4413019;32;20143;-60
2021/05/06 06:28:56;;;;;;;0.30;0.30;;;7.70;99.90;;;;;;4421405;32;20491;-61
2021/05/06 06:31:25;;;;;;;0.40;0.40;;;7.70;99.90;;;;;;4420175;32;20129;-61
2021/05/06 06:33:51;;;;;;;0.30;0.30;;;7.70;99.90;;;;;;4402158;32;20156;-61
2021/05/06 06:36:18;;;;;;;0.47;0.47;;;7.70;99.90;;;;;;4424737;32;20534;-62
2021/05/06 06:38:45;;;;;;;0.40;0.40;;;7.80;99.90;;;;;;4425444;32;20400;-61
2021/05/06 06:41:12;;;;;;;0.30;0.30;;;7.80;99.90;;;;;;4422874;32;20066;-61
2021/05/06 06:43:39;;;;;;;2.30;1.17;;;7.80;99.90;;;;;;4418966;32;20081;-61
2021/05/06 06:46:05;;;;;;;0.77;0.55;;;7.80;99.90;;;;;;4400732;32;20116;-62
2021/05/06 06:48:31;;;;;;;0.50;0.50;;;7.90;99.90;;;;;;4418344;32;20101;-61
2021/05/06 06:50:56;;;;;;;2.30;1.33;;;8.00;99.90;;;;;;4416092;32;20238;-60
2021/05/06 06:53:22;;;;;;;1.12;0.55;;;8.00;99.90;;;;;;4419615;32;20073;-61
2021/05/06 06:55:48;;;;;;;0.55;0.50;;;8.10;99.90;;;;;;4411412;32;20078;-62
2021/05/06 06:58:15;;;;;;;0.45;0.45;;;8.30;99.90;;;;;;4397754;32;20362;-62
2021/05/06 07:00:44;;;;;;;0.40;0.40;;;8.30;99.90;;;;;;4419709;32;20069;-61
2021/05/06 07:03:10;;;;;;;3.25;1.35;;;8.30;99.90;;;;;;4403282;32;20170;-61
2021/05/06 07:05:37;;;;;;;0.30;0.30;;;8.50;99.90;;;;;;4420174;32;20061;-63
2021/05/06 07:08:25;;;;;;;2.53;0.60;;;8.60;99.90;;;;;;4398131;32;20077;-61
2021/05/06 07:10:54;;;;;;;0.50;0.50;;;8.70;99.90;;;;;;4409057;32;20078;-61
2021/05/06 07:13:20;;;;;;;0.40;0.40;;;8.70;99.90;;;;;;4406405;32;20117;-59
2021/05/06 07:15:49;;;;;;;1.85;1.17;;;8.80;99.90;;;;;;4399695;32;20083;-60
2021/05/06 07:18:16;;;;;;;0.45;0.37;;;8.60;99.90;;;;;;4414872;32;20081;-61
2021/05/06 07:20:43;;;;;;;7.03;1.95;;;8.50;99.90;;;;;;4419394;32;20109;-60
2021/05/06 07:23:10;;;;;;;0.30;0.30;;;8.50;99.90;;;;;;4417093;32;20074;-60
2021/05/06 07:25:36;;;;;;;0.30;0.30;;;8.50;99.90;;;;;;4393881;32;20421;-60
2021/05/06 07:28:15;;;;;;;3.62;1.52;;;8.50;99.90;;;;;;4414297;32;20096;-61
2021/05/06 07:30:41;;;;;;;0.45;0.45;;;8.50;99.90;;;;;;4417107;32;20660;-60
2021/05/06 07:33:08;;;;;;;0.30;0.30;;;8.50;99.90;;;;;;4402073;32;20145;-63
2021/05/06 07:35:33;;;;;;;0.40;0.40;;;8.50;99.90;;;;;;4445850;26;20064;-74
2021/05/06 07:37:59;;;;;;;0.30;0.30;;;8.60;99.90;;;;;;4426145;32;20081;-73
2021/05/06 07:40:27;;;;;;;0.40;0.40;;;8.70;99.90;;;;;;4432225;32;20061;-72
2021/05/06 07:42:52;;;;;;;0.40;0.40;;;8.80;99.90;;;;;;4422312;32;20147;-73
2021/05/06 07:45:18;;;;;;;0.45;0.45;;;8.60;99.90;;;;;;4422567;32;20225;-73
2021/05/06 07:47:44;;;;;;;0.35;0.35;;;8.70;99.90;;;;;;4421476;32;20617;-73
2021/05/06 07:50:10;;;;;;;1.75;0.50;;;8.80;99.90;;;;;;4420703;32;20077;-72
2021/05/06 07:52:36;;;;;;;0.30;0.30;;;8.90;99.90;;;;;;4422056;32;20478;-74
2021/05/06 07:55:02;;;;;;;0.50;0.50;;;9.20;99.90;;;;;;4424669;32;20085;-73
2021/05/06 07:57:27;;;;;;;0.37;0.37;;;9.10;99.90;;;;;;4420764;32;20097;-72
2021/05/06 07:59:56;;;;;;;0.50;0.50;;;9.20;99.90;;;;;;4425096;32;20563;-72
2021/05/06 08:02:22;;;;;;;0.43;0.43;;;9.60;99.90;;;;;;4422988;32;20136;-72
2021/05/06 08:04:47;;;;;;;0.40;0.40;;;9.90;99.90;;;;;;4422723;32;20144;-73
2021/05/06 08:07:13;;;;;;;0.57;0.57;;;9.80;99.90;;;;;;4420644;32;20511;-72
2021/05/06 08:09:38;;;;;;;0.70;0.70;;;9.70;99.90;;;;;;4422472;32;20417;-73
2021/05/06 08:12:05;;;;;;;1.30;0.98;;;9.40;99.90;;;;;;4424933;32;20137;-74
2021/05/06 08:14:30;;;;;;;0.45;0.45;;;9.40;99.90;;;;;;4423914;32;20057;-72
2021/05/06 08:16:56;;;;;;;0.75;0.75;;;9.40;99.90;;;;;;4416241;32;20550;-74
2021/05/06 08:19:21;;;;;;;0.30;0.30;;;9.50;99.90;;;;;;4407288;32;20079;-74
2021/05/06 08:21:47;;;;;;;0.30;0.30;;;9.70;99.90;;;;;;4406560;32;20478;-73
2021/05/06 08:24:13;;;;;;;0.50;0.50;;;9.90;99.90;;;;;;4403484;32;20866;-73
2021/05/06 08:26:39;;;;;;;0.40;0.40;;;10.00;99.90;;;;;;4406873;32;20102;-73
2021/05/06 08:29:06;;;;;;;0.20;0.20;;;10.00;99.90;;;;;;4405739;32;20078;-73
2021/05/06 08:31:32;;;;;;;28.58;0.88;;;10.10;99.90;;;;;;4406082;32;20089;-72
2021/05/06 08:33:58;;;;;;;0.40;0.40;;;10.00;99.90;;;;;;4404398;32;20439;-72
2021/05/06 08:36:24;;;;;;;0.30;0.30;;;10.10;99.90;;;;;;4406392;32;20102;-72
2021/05/06 08:38:51;;;;;;;0.35;0.35;;;9.90;99.90;;;;;;4405156;32;20082;-72
2021/05/06 08:41:18;;;;;;;1.85;0.85;;;9.90;99.90;;;;;;4405246;32;20381;-73
2021/05/06 08:43:49;;;;;;;0.30;0.30;;;9.70;99.90;;;;;;4408197;32;20941;-71
2021/05/06 08:46:16;;;;;;;0.40;0.40;;;9.80;99.90;;;;;;4406960;32;20526;-71
2021/05/06 08:48:43;;;;;;;0.40;0.35;;;10.00;99.90;;;;;;4408527;32;20096;-73
2021/05/06 08:51:08;;;;;;;0.40;0.40;;;10.10;99.90;;;;;;4410592;32;20085;-72
2021/05/06 08:53:34;;;;;;;0.40;0.40;;;10.10;99.90;;;;;;4409340;32;20455;-73
2021/05/06 08:56:00;;;;;;;1.40;0.77;;;10.20;99.90;;;;;;4413355;32;20065;-72
2021/05/06 08:58:26;;;;;;;0.50;0.50;;;10.10;99.90;;;;;;4408852;32;20090;-72
2021/05/06 09:00:51;;;;;;;2.75;1.00;;;10.30;99.90;;;;;;4408942;32;20466;-72
2021/05/06 09:03:17;;;;;;;0.50;0.50;;;10.20;99.90;;;;;;4408997;32;20077;-73
2021/05/06 09:06:06;;;;;;;0.40;0.40;;;10.00;99.90;;;;;;4410421;32;20445;-72
2021/05/06 09:08:34;;;;;;;1.25;1.15;;;10.00;99.90;;;;;;4398149;32;20785;-73
2021/05/06 09:11:00;;;;;;;0.40;0.40;;;10.10;99.90;;;;;;4410001;32;20081;-72
2021/05/06 09:13:28;;;;;;;0.43;0.43;;;10.10;99.90;;;;;;4411532;32;20073;-72
2021/05/06 09:15:53;;;;;;;0.40;0.40;;;10.10;99.90;;;;;;4409401;32;20483;-71
2021/05/06 09:18:41;;;;;;;0.40;0.40;;;10.10;99.90;;;;;;4409040;32;20085;-73
2021/05/06 09:21:10;;;;;;;0.30;0.30;;;10.10;99.90;;;;;;4395601;32;20187;-75
2021/05/06 09:23:36;;;;;;;0.40;0.40;;;10.50;99.90;;;;;;4406655;32;20082;-71
2021/05/06 09:26:04;;;;;;;3.30;0.62;;;10.40;99.90;;;;;;4405555;32;20094;-71
2021/05/06 09:28:31;;;;;;;0.60;0.60;;;10.40;99.90;;;;;;4408166;32;20419;-72
2021/05/06 09:31:02;;;;;;;0.70;0.70;;;10.30;99.90;;;;;;4407482;32;20537;-72
2021/05/06 09:33:31;;;;;;;6.03;0.82;;;10.30;99.90;;;;;;4404232;32;20090;-71
2021/05/06 09:35:57;;;;;;;2.90;0.88;;;10.20;99.90;;;;;;4408515;32;20097;-71
2021/05/06 09:38:32;;;;;;;0.30;0.30;;;10.30;99.90;;;;;;4407162;32;20093;-71
2021/05/06 09:41:01;;;;;;;0.30;0.30;;;10.60;99.90;;;;;;4408321;32;77019;-71
2021/05/06 09:43:34;;;;;;;1.20;0.65;;;10.70;99.90;;;;;;4408438;32;20073;-71
2021/05/06 09:46:01;;;;;;;0.40;0.40;;;10.90;99.90;;;;;;4406917;32;20152;-71
2021/05/06 09:48:27;;;;;;;0.73;0.73;;;10.70;99.90;;;;;;4405742;32;20097;-71
2021/05/06 09:50:59;;;;;;;0.32;0.32;;;10.50;99.90;;;;;;4407429;32;20203;-71
2021/05/06 09:53:29;;;;;;;2.90;1.67;;;10.30;99.90;;;;;;4411597;32;20151;-71
2021/05/06 09:55:57;;;;;;;0.45;0.40;;;10.30;99.90;;;;;;4409398;32;20082;-71
2021/05/06 09:58:28;;;;;;;0.75;0.75;;;10.40;99.90;;;;;;4406926;32;20138;-71
2021/05/06 10:00:54;;;;;;;4.78;0.88;;;10.30;99.90;;;;;;4419100;32;20077;-72
2021/05/06 10:03:23;;;;;;;0.50;0.50;;;10.40;99.90;;;;;;4417814;32;20132;-71
2021/05/06 10:05:50;;;;;;;1.30;0.80;;;10.40;99.90;;;;;;4423487;32;20073;-72
2021/05/06 10:08:16;;;;;;;0.40;0.40;;;10.20;99.90;;;;;;4416970;32;20107;-71
2021/05/06 10:10:43;;;;;;;0.50;0.50;;;10.10;99.90;;;;;;4415678;32;20074;-71
2021/05/06 10:13:10;;;;;;;0.47;0.47;;;10.10;99.90;;;;;;4412127;32;20094;-72
2021/05/06 10:15:38;;;;;;;0.40;0.40;;;10.20;99.90;;;;;;4418446;32;20110;-71
2021/05/06 10:18:04;;;;;;;0.93;0.90;;;10.20;99.90;;;;;;4420296;32;20098;-72
2021/05/06 10:20:29;;;;;;;2.55;0.60;;;10.20;99.90;;;;;;4409914;32;20050;-72
2021/05/06 10:22:56;;;;;;;2.55;0.68;;;10.00;99.90;;;;;;4411005;32;20392;-72
2021/05/06 10:25:23;;;;;;;0.50;0.50;;;9.60;99.90;;;;;;4416438;32;20065;-72
2021/05/06 10:27:51;;;;;;;0.50;0.50;;;9.30;99.90;;;;;;4415591;32;20149;-71
2021/05/06 10:30:19;;;;;;;0.52;0.52;;;9.10;99.90;;;;;;4424276;32;20053;-71
2021/05/06 10:32:46;;;;;;;0.30;0.30;;;8.90;99.90;;;;;;4421418;32;20062;-72
2021/05/06 10:35:17;;;;;;;1.17;0.65;;;8.50;99.90;;;;;;4417635;32;20098;-72
2021/05/06 10:37:44;;;;;;;0.80;0.68;;;8.30;99.90;;;;;;4417674;32;20081;-72
2021/05/06 10:40:31;;;;;;;0.35;0.35;;;8.20;99.90;;;;;;4417428;32;20124;-71
2021/05/06 10:43:17;;;;;;;0.40;0.40;;;8.00;99.90;;;;;;4409205;32;20085;-71
2021/05/06 10:45:42;;;;;;;0.30;0.30;;;8.10;99.90;;;;;;4414459;32;20083;-71
2021/05/06 10:48:08;;;;;;;4.80;0.62;;;8.10;99.90;;;;;;4417933;32;20085;-71
2021/05/06 10:50:37;;;;;;;0.40;0.40;;;8.20;99.90;;;;;;4416977;32;20086;-72
2021/05/06 10:53:05;;;;;;;18.37;3.62;;;8.40;99.90;;;;;;4417572;32;20141;-70
2021/05/06 10:55:48;;;;;;;0.65;0.65;;;8.50;99.90;;;;;;4417268;32;20057;-71
2021/05/06 10:58:33;;;;;;;0.40;0.40;;;8.60;99.90;;;;;;4415760;32;20081;-71
2021/05/06 11:01:04;;;;;;;0.40;0.40;;;8.70;99.90;;;;;;4417413;32;20081;-71
2021/05/06 11:03:32;;;;;;;10.68;0.55;;;8.90;99.90;;;;;;4415054;32;20527;-71
2021/05/06 11:05:58;;;;;;;0.50;0.50;;;9.20;99.90;;;;;;4419365;32;20083;-71
2021/05/06 11:08:27;;;;;;;0.45;0.45;;;9.30;99.90;;;;;;4426735;32;20086;-71
2021/05/06 11:10:56;;;;;;;0.47;0.47;;;9.50;99.90;;;;;;4421249;32;20102;-72
2021/05/06 11:13:26;;;;;;;0.43;0.43;;;9.80;99.90;;;;;;4414615;32;20554;-72
2021/05/06 11:15:52;;;;;;;0.68;0.47;;;10.20;99.90;;;;;;4420325;32;20077;-71
2021/05/06 11:18:43;;;;;;;0.40;0.40;;;10.50;99.90;;;;;;4418502;32;20530;-72
2021/05/06 11:21:09;;;;;;;;;;;10.90;99.90;;;;;;4409403;32;20129;-71
2021/05/06 11:23:36;;;;;;;0.73;0.70;;;11.30;99.90;;;;;;4420954;32;20003;-72
2021/05/06 11:26:04;;;;;;;0.52;0.52;;;11.80;99.90;;;;;;4418646;32;20061;-72
2021/05/06 11:28:32;;;;;;;0.50;0.50;;;11.70;99.90;;;;;;4410595;32;20167;-72
2021/05/06 11:30:59;;;;;;;0.47;0.47;;;11.50;99.90;;;;;;4421332;32;20062;-71
2021/05/06 11:33:25;;;;;;;0.45;0.45;;;11.70;99.90;;;;;;4413550;32;20606;-71
2021/05/06 11:35:56;;;;;;;0.37;0.37;;;12.10;99.90;;;;;;4414210;32;20110;-71
2021/05/06 11:38:39;;;;;;;3.73;1.60;;;12.40;99.90;;;;;;4411765;32;20101;-71
2021/05/06 11:41:08;;;;;;;0.50;0.50;;;12.70;99.90;;;;;;4413008;32;20167;-71
2021/05/06 11:43:36;;;;;;;0.40;0.40;;;13.00;99.90;;;;;;4416838;32;20418;-72
2021/05/06 11:46:04;;;;;;;0.30;0.30;;;12.40;99.90;;;;;;4417330;32;20142;-73
2021/05/06 11:48:35;;;;;;;1.42;0.57;;;12.00;99.90;;;;;;4414877;32;20134;-71
2021/05/06 11:51:01;;;;;;;0.77;0.60;;;12.30;99.90;;;;;;4415468;32;20066;-71
2021/05/06 11:53:27;;;;;;;0.40;0.40;;;13.10;99.90;;;;;;4416346;32;20119;-72
2021/05/06 11:55:52;;;;;;;0.37;0.37;;;13.90;99.90;;;;;;4412363;32;20069;-72
2021/05/06 11:58:26;;;;;;;1.10;0.50;;;13.90;99.90;;;;;;4419835;32;20076;-71
2021/05/06 12:00:52;;;;;;;1.27;1.00;;;13.90;99.90;;;;;;4421310;32;20090;-71
2021/05/06 12:03:18;;;;;;;0.40;0.40;;;14.30;99.90;;;;;;4415567;32;20073;-72
2021/05/06 12:05:55;;;;;;;0.43;0.40;;;14.20;99.90;;;;;;4416686;32;20173;-72
2021/05/06 12:08:24;;;;;;;3.10;0.93;;;14.70;99.90;;;;;;4410316;32;20743;-71
2021/05/06 12:10:50;;;;;;;0.40;0.40;;;13.90;99.90;;;;;;4414356;32;20069;-71
2021/05/06 12:13:22;;;;;;;0.37;0.37;;;13.50;99.90;;;;;;4413488;32;20104;-71
2021/05/06 12:15:48;;;;;;;0.50;0.50;;;12.80;99.90;;;;;;4423359;32;20409;-71
2021/05/06 12:18:15;;;;;;;0.47;0.47;;;12.60;99.90;;;;;;4421559;32;20125;-71
2021/05/06 12:20:57;;;;;;;0.37;0.37;;;12.40;99.90;;;;;;4416107;32;20085;-71
2021/05/06 12:23:25;;;;;;;0.47;0.47;;;12.20;99.90;;;;;;4414777;32;20073;-71
2021/05/06 12:25:51;;;;;;;0.52;0.52;;;12.00;99.90;;;;;;4416110;32;20064;-71
2021/05/06 12:28:17;;;;;;;0.40;0.40;;;11.80;99.90;;;;;;4413133;32;20501;-71
2021/05/06 12:30:43;;;;;;;0.40;0.40;;;12.10;99.90;;;;;;4418122;32;20069;-71
2021/05/06 12:33:09;;;;;;;2.90;1.10;;;12.00;99.90;;;;;;4411691;32;20076;-71
2021/05/06 12:35:52;;;;;;;0.40;0.40;;;12.00;99.90;;;;;;4412196;32;20093;-71
2021/05/06 12:38:18;;;;;;;0.30;0.30;;;12.80;99.90;;;;;;4414679;32;20081;-71
2021/05/06 12:40:44;;;;;;;5.32;0.57;;;13.40;99.90;;;;;;4416571;32;20113;-71
2021/05/06 12:43:29;;;;;;;0.88;0.50;;;13.20;99.90;;;;;;4415333;32;20644;-70
2021/05/06 12:46:18;;;;;;;0.35;0.35;;;12.80;99.90;;;;;;4418417;32;20078;-70
2021/05/06 12:48:53;;;;;;;0.35;0.35;;;12.60;99.90;;;;;;4402237;32;20066;-69
2021/05/06 12:51:25;;;;;;;0.68;0.68;;;12.20;99.90;;;;;;4411075;32;20098;-71
2021/05/06 12:54:01;;;;;;;0.55;0.55;;;11.80;99.90;;;;;;4412789;32;20498;-71
2021/05/06 12:56:28;;;;;;;0.62;0.52;;;11.70;99.90;;;;;;4414151;32;20066;-71
2021/05/06 12:58:54;;;;;;;0.50;0.50;;;11.50;99.90;;;;;;4415018;32;20138;-71
2021/05/06 13:01:35;;;;;;;0.40;0.40;;;11.40;99.90;;;;;;4422542;32;20069;-72
2021/05/06 13:04:02;;;;;;;;;;;11.30;99.90;;;;;;4416760;32;20069;-72
2021/05/06 13:06:32;;;;;;;0.32;0.32;;;11.20;99.90;;;;;;4425251;32;19949;-72
2021/05/06 13:08:59;;;;;;;0.40;0.40;;;10.80;99.90;;;;;;4426186;32;20065;-72
2021/05/06 13:11:26;;;;;;;0.40;0.40;;;11.60;99.90;;;;;;4420826;32;20447;-72
2021/05/06 13:13:53;;;;;;;0.30;0.30;;;13.00;99.90;;;;;;4424229;32;20129;-73
2021/05/06 13:16:42;;;;;;;0.60;0.60;;;14.10;99.90;;;;;;4426652;32;20170;-73
2021/05/06 13:19:10;;;;;;;0.40;0.40;;;15.10;99.90;;;;;;4412762;32;20173;-72
2021/05/06 13:21:36;;;;;;;0.30;0.30;;;15.20;99.90;;;;;;4426137;32;20057;-71
2021/05/06 13:24:04;;;;;;;0.30;0.30;;;15.10;99.90;;;;;;4421324;32;20065;-71
2021/05/06 13:26:33;;;;;;;0.40;0.40;;;15.20;99.90;;;;;;4424196;32;20070;-71
2021/05/06 13:29:00;;;;;;;0.68;0.68;;;14.80;99.90;;;;;;4422495;32;20415;-71
2021/05/06 13:31:32;;;;;;;0.40;0.40;;;14.30;99.90;;;;;;4415298;32;20054;-71
2021/05/06 13:34:24;;;;;;;0.40;0.40;;;14.60;99.90;;;;;;4423613;32;20177;-72
2021/05/06 13:37:00;;;;;;;0.40;0.40;;;14.30;99.90;;;;;;4414308;32;20499;-72
2021/05/06 13:39:26;;;;;;;0.43;0.43;;;13.60;99.90;;;;;;4416588;32;20140;-72
2021/05/06 13:41:52;;;;;;;0.30;0.30;;;13.30;99.90;;;;;;4425155;32;20502;-71
2021/05/06 13:44:19;;;;;;;0.40;0.40;;;13.20;99.90;;;;;;4414541;32;20437;-72
2021/05/06 13:46:54;;;;;;;0.62;0.50;;;14.00;99.90;;;;;;4422137;32;20086;-72
2021/05/06 13:49:22;;;;;;;0.40;0.40;;;14.10;99.30;;;;;;4427525;32;20532;-71
2021/05/06 13:51:49;;;;;;;0.47;0.47;;;13.90;96.70;;;;;;4416501;32;20065;-71
2021/05/06 13:54:16;;;;;;;0.50;0.50;;;13.60;97.80;;;;;;4422734;32;20074;-72
2021/05/06 13:56:41;;;;;;;0.60;0.60;;;13.40;97.80;;;;;;4415235;32;20077;-72
2021/05/06 13:59:07;;;;;;;0.30;0.30;;;13.30;99.00;;;;;;4428266;32;20137;-72
2021/05/06 14:01:32;;;;;;;0.60;0.47;;;13.20;98.10;;;;;;4423104;32;20065;-71
2021/05/06 14:03:58;;;;;;;0.35;0.35;;;13.30;98.00;;;;;;4417204;32;20598;-72
2021/05/06 14:06:24;;;;;;;0.30;0.30;;;13.20;97.60;;;;;;4428050;32;20069;-72
2021/05/06 14:08:49;;;;;;;0.35;0.35;;;13.50;96.60;;;;;;4428126;32;20077;-72
2021/05/06 14:11:15;;;;;;;0.45;0.40;;;13.90;96.60;;;;;;4427262;32;20065;-72
2021/05/06 14:13:41;;;;;;;1.35;0.93;;;14.00;96.40;;;;;;4420448;32;20164;-71
2021/05/06 14:16:07;;;;;;;0.30;0.30;;;13.90;95.50;;;;;;4422972;32;20299;-71
2021/05/06 14:18:33;;;;;;;0.40;0.40;;;13.70;95.10;;;;;;4423704;32;20093;-71
2021/05/06 14:21:01;;;;;;;0.20;0.20;;;13.50;94.80;;;;;;4426181;32;20523;-71
2021/05/06 14:23:28;;;;;;;0.40;0.40;;;13.20;95.20;;;;;;4418651;32;20085;-71
2021/05/06 14:25:55;;;;;;;0.30;0.30;;;13.00;95.40;;;;;;4417469;32;20090;-71
2021/05/06 14:28:21;;;;;;;0.40;0.40;;;12.90;95.10;;;;;;4419834;32;20574;-71
2021/05/06 14:30:46;;;;;;;0.50;0.50;;;12.90;96.00;;;;;;4427171;32;20069;-72
2021/05/06 14:33:12;;;;;;;0.30;0.30;;;13.90;95.30;;;;;;4403897;32;20622;-72
2021/05/06 14:35:38;;;;;;;0.22;0.22;;;14.90;92.00;;;;;;4412271;32;20073;-72
2021/05/06 14:38:07;;;;;;;4.55;1.05;;;15.20;91.80;;;;;;4411917;32;20333;-72
2021/05/06 14:40:33;;;;;;;0.30;0.30;;;15.30;91.70;;;;;;4413293;32;20065;-72
2021/05/06 14:42:58;;;;;;;0.30;0.30;;;14.90;92.00;;;;;;4414306;32;20130;-72
2021/05/06 14:45:24;;;;;;;1.52;0.85;;;14.40;91.30;;;;;;4413090;32;20472;-72
2021/05/06 14:47:49;;;;;;;4.32;0.50;;;14.00;91.20;;;;;;4426576;32;20076;-72
2021/05/06 14:50:16;;;;;;;0.55;0.40;;;13.60;91.60;;;;;;4428764;32;20081;-72
2021/05/06 14:52:42;;;;;;;0.30;0.30;;;13.50;92.20;;;;;;4428383;32;20073;-72